Sedalia, MO (65302)

4:44 PM CDT on September 04, 2015 (GMT -0500)
KMOSEDAL5 | | Change Station
CLOSE
Current Station
Personal Weather Station
Location: Sedalia, MO
Elevation: 837 ft
Nearby Weather Stations

Elev 837 ft 38.70 °N, 93.29 °W | Updated 1 second ago

Clear
Clear
93.9 °F
Feels Like 101 °F
N
5.0
Wind Variable Wind from SSE
Gusts 11.0 mph

Today
High -- | Low -- °F
--% Chance of Precip.
Yesterday
High -- | Low -- °F
Precip. -- in
6:44 AM 7:38 PM
Waning Gibbous, 56% visible
Pressure 29.96 in
Visibility 10.0 miles
Clouds Clear
Heat Index 101 °F
Dew Point 70 °F
Humidity 47%
Rainfall 0.00 in
Snow Depth Not available.
UV 5 out of 12
Pollen 11.00 out of 12
Air Quality Not available.
Flu Activity Not available.
METAR KDMO 042053Z AUTO 18007KT 10SM CLR 34/19 A2999 RMK AO2 SLP144 T03390194 58012
Pressure 29.96 in
Visibility 10.0 miles
Clouds Clear
Heat Index 101 °F
Dew Point 70 °F
Humidity 47%
Rainfall 0.00 in
Snow Depth Not available.
UV 5 out of 12
Pollen 11.00 out of 12
Air Quality Not available.
Flu Activity Not available.
METAR KDMO 042053Z AUTO 18007KT 10SM CLR 34/19 A2999 RMK AO2 SLP144 T03390194 58012

10-Day Weather Forecast

×

Almanac

Astronomy

Sep. 04, 2015 Rise Set
Actual Time
Civil Twilight
Nautical Twilight
Astronomical Twilight
Moon
Length of Visible Light
Length of Day
Tomorrow will be .
, % of the Moon is Illuminated

Today's Extremes

State Highs State Lows

Community

WunderPhotos

Upload Photos

1,852,297 photos uploaded!

WunderBlogs® & News

Nearby

Air Quality

  Air Quality AQ Index Pollutant
Not available.

Snow Depth

Station Depth Elevation

Earthquake Activity

City Distance Mag. Time & Date
Minimum magnitude displayed is 2.5.

Coastal Water Temperatures

Place Temperature

Stations

Nearby Weather Stations

Station Location Temp. Windchill Dew Point Humidity Wind Precip. Elev Updated Type